createdAt,value
2023-11-15T00:00:09.876Z,12.70
2023-11-15T00:02:38.952Z,12.80
2023-11-15T00:05:07.948Z,12.70
2023-11-15T00:07:36.928Z,12.70
2023-11-15T00:10:06.248Z,12.70
2023-11-15T00:12:35.888Z,12.70
2023-11-15T00:15:05.137Z,12.70
2023-11-15T00:17:33.392Z,12.60
2023-11-15T00:20:05.400Z,12.60
2023-11-15T00:22:33.735Z,12.60
2023-11-15T00:25:02.055Z,12.50
2023-11-15T00:27:30.113Z,12.50
2023-11-15T00:29:59.673Z,12.50
2023-11-15T00:32:27.788Z,12.50
2023-11-15T00:34:56.137Z,12.50
2023-11-15T00:37:24.415Z,12.40
2023-11-15T00:39:53.273Z,12.40
2023-11-15T00:42:21.343Z,12.40
2023-11-15T00:44:49.453Z,12.40
2023-11-15T00:47:19.939Z,12.40
2023-11-15T00:49:47.989Z,12.50
2023-11-15T00:52:16.110Z,12.50
2023-11-15T00:54:44.169Z,12.50
2023-11-15T00:57:12.187Z,12.50
2023-11-15T00:59:45.594Z,12.50
2023-11-15T01:02:15.082Z,12.50
2023-11-15T01:04:44.576Z,12.50
2023-11-15T01:07:12.597Z,12.50
2023-11-15T01:09:40.677Z,12.50
2023-11-15T01:12:09.484Z,12.50
2023-11-15T01:14:37.756Z,12.50
2023-11-15T01:17:06.250Z,12.50
2023-11-15T01:19:34.480Z,12.50
2023-11-15T01:22:03.986Z,12.50
2023-11-15T01:24:32.063Z,12.50
2023-11-15T01:27:00.117Z,12.50
2023-11-15T01:29:28.330Z,12.50
2023-11-15T01:31:57.646Z,12.50
2023-11-15T01:34:25.707Z,12.50
2023-11-15T01:36:55.907Z,12.50
2023-11-15T01:39:25.377Z,12.50
2023-11-15T01:41:53.793Z,12.50
2023-11-15T01:44:22.420Z,12.50
2023-11-15T01:46:52.477Z,12.50
2023-11-15T01:49:23.143Z,12.50
2023-11-15T01:51:52.656Z,12.50
2023-11-15T01:54:22.778Z,12.50
2023-11-15T01:56:52.826Z,12.50
2023-11-15T01:59:21.163Z,12.50
2023-11-15T02:01:52.324Z,12.50
2023-11-15T02:04:20.695Z,12.50
2023-11-15T02:06:49.006Z,12.50
2023-11-15T02:09:17.158Z,12.40
2023-11-15T02:11:45.277Z,12.50
2023-11-15T02:14:15.179Z,12.40
2023-11-15T02:16:45.841Z,12.50
2023-11-15T02:19:15.644Z,12.50
2023-11-15T02:21:43.762Z,12.50
2023-11-15T02:24:13.513Z,12.40
2023-11-15T02:26:41.627Z,12.40
2023-11-15T02:29:10.209Z,12.40
2023-11-15T02:31:38.452Z,12.40
2023-11-15T02:34:06.735Z,12.40
2023-11-15T02:36:34.814Z,12.30
2023-11-15T02:39:02.940Z,12.40
2023-11-15T02:41:32.397Z,12.40
2023-11-15T02:44:00.562Z,12.40
2023-11-15T02:46:28.620Z,12.30
2023-11-15T02:48:56.736Z,12.30
2023-11-15T02:51:24.782Z,12.30
2023-11-15T02:53:53.200Z,12.30
2023-11-15T02:56:21.240Z,12.30
2023-11-15T02:58:50.707Z,12.30
2023-11-15T03:01:18.847Z,12.30
2023-11-15T03:03:47.140Z,12.30
2023-11-15T03:06:15.276Z,12.20
2023-11-15T03:08:42.369Z,12.20
2023-11-15T03:11:10.414Z,12.20
2023-11-15T03:13:38.531Z,12.20
2023-11-15T03:16:08.912Z,12.20
2023-11-15T03:18:37.113Z,12.20
2023-11-15T03:21:05.834Z,12.20
2023-11-15T03:23:33.909Z,12.20
2023-11-15T03:26:01.962Z,12.20
2023-11-15T03:28:30.024Z,12.20
2023-11-15T03:30:58.018Z,12.10
2023-11-15T03:33:27.647Z,12.10
2023-11-15T03:35:56.160Z,12.10
2023-11-15T03:38:24.196Z,12.00
2023-11-15T03:40:52.505Z,11.90
2023-11-15T03:43:20.491Z,11.80
2023-11-15T03:45:48.517Z,11.80
2023-11-15T03:48:16.576Z,11.70
2023-11-15T03:50:45.968Z,11.60
2023-11-15T03:53:14.076Z,11.60
2023-11-15T03:55:43.892Z,11.50
2023-11-15T03:58:13.640Z,11.50
2023-11-15T04:00:41.660Z,11.40
2023-11-15T04:03:09.899Z,11.40
2023-11-15T04:05:38.141Z,11.30
2023-11-15T04:08:08.008Z,11.30
2023-11-15T04:10:36.060Z,11.30
2023-11-15T04:13:04.129Z,11.20
2023-11-15T04:15:32.173Z,11.20
2023-11-15T04:18:00.295Z,11.10
2023-11-15T04:20:28.926Z,11.10
2023-11-15T04:22:58.069Z,11.10
2023-11-15T04:25:27.439Z,11.10
2023-11-15T04:27:55.882Z,11.10
2023-11-15T04:30:23.930Z,11.20
2023-11-15T04:32:52.028Z,11.20
2023-11-15T04:35:20.562Z,11.20
2023-11-15T04:37:48.728Z,11.30
2023-11-15T04:40:16.843Z,11.30
2023-11-15T04:42:46.277Z,11.20
2023-11-15T04:45:14.335Z,11.20
2023-11-15T04:47:42.428Z,11.20
2023-11-15T04:50:11.637Z,11.20
2023-11-15T04:52:39.696Z,11.20
2023-11-15T04:55:07.966Z,11.20
2023-11-15T04:57:36.252Z,11.10
2023-11-15T05:00:10.819Z,11.10
2023-11-15T05:02:39.042Z,11.10
2023-11-15T05:05:07.349Z,11.00
2023-11-15T05:07:37.922Z,11.00
2023-11-15T05:10:06.778Z,10.90
2023-11-15T05:12:34.780Z,10.90
2023-11-15T05:15:02.858Z,10.90
2023-11-15T05:17:32.315Z,10.80
2023-11-15T05:20:00.500Z,10.80
2023-11-15T05:22:28.525Z,10.80
2023-11-15T05:24:56.963Z,10.80
2023-11-15T05:27:25.025Z,10.80
2023-11-15T05:29:53.063Z,10.80
2023-11-15T05:32:21.138Z,10.80
2023-11-15T05:34:50.537Z,10.80
2023-11-15T05:37:27.000Z,10.80
2023-11-15T05:39:55.093Z,10.70
2023-11-15T05:42:23.214Z,10.70
2023-11-15T05:44:51.486Z,10.70
2023-11-15T05:47:19.685Z,10.60
2023-11-15T05:49:48.132Z,10.60
2023-11-15T05:52:17.709Z,10.60
2023-11-15T05:54:48.092Z,10.60
2023-11-15T05:57:16.194Z,10.60
2023-11-15T05:59:44.455Z,10.60
2023-11-15T06:02:13.392Z,10.70
2023-11-15T06:04:41.431Z,10.60
2023-11-15T06:07:10.487Z,10.60
2023-11-15T06:09:38.495Z,10.60
2023-11-15T06:12:09.034Z,10.60
2023-11-15T06:14:37.129Z,10.50
2023-11-15T06:17:05.789Z,10.50
2023-11-15T06:19:33.960Z,10.50
2023-11-15T06:22:02.275Z,10.50
2023-11-15T06:24:30.866Z,10.50
2023-11-15T06:26:58.921Z,10.50
2023-11-15T06:29:28.916Z,10.40
2023-11-15T06:31:57.039Z,10.40
2023-11-15T06:34:25.183Z,10.40
2023-11-15T06:36:55.187Z,10.40
2023-11-15T06:39:24.284Z,10.40
2023-11-15T06:41:52.318Z,10.40
2023-11-15T06:44:20.397Z,10.30
2023-11-15T06:46:50.161Z,10.30
2023-11-15T06:49:18.533Z,10.30
2023-11-15T06:51:50.625Z,10.30
2023-11-15T06:54:18.910Z,10.30
2023-11-15T06:56:49.843Z,10.30
2023-11-15T06:59:18.405Z,10.20
2023-11-15T07:01:49.345Z,10.20
2023-11-15T07:04:20.596Z,10.20
2023-11-15T07:06:49.764Z,10.20
2023-11-15T07:09:19.375Z,10.20
2023-11-15T07:11:48.405Z,10.20
2023-11-15T07:14:16.925Z,10.20
2023-11-15T07:16:48.586Z,10.20
2023-11-15T07:19:19.484Z,10.20
2023-11-15T07:21:47.533Z,10.20
2023-11-15T07:24:15.603Z,10.20
2023-11-15T07:26:43.615Z,10.20
2023-11-15T07:29:14.208Z,10.20
2023-11-15T07:31:43.377Z,10.30
2023-11-15T07:34:11.908Z,10.30
2023-11-15T07:36:41.289Z,10.30
2023-11-15T07:39:14.925Z,10.30
2023-11-15T07:41:43.050Z,10.30
2023-11-15T07:44:11.176Z,10.30
2023-11-15T07:46:39.760Z,10.30
2023-11-15T07:49:08.623Z,10.40
2023-11-15T07:51:36.699Z,10.40
2023-11-15T07:54:08.565Z,10.40
2023-11-15T07:56:39.067Z,10.40
2023-11-15T07:59:07.729Z,10.40
2023-11-15T08:01:36.981Z,10.40
2023-11-15T08:04:07.490Z,10.50
2023-11-15T08:06:37.353Z,10.60
2023-11-15T08:09:08.608Z,10.70
2023-11-15T08:11:37.081Z,10.70
2023-11-15T08:14:07.656Z,10.60
2023-11-15T08:16:36.833Z,10.60
2023-11-15T08:19:05.182Z,10.60
2023-11-15T08:21:33.463Z,10.60
2023-11-15T08:24:01.577Z,10.70
2023-11-15T08:26:31.041Z,10.70
2023-11-15T08:28:59.089Z,10.70
2023-11-15T08:31:28.037Z,10.70
2023-11-15T08:33:56.220Z,10.70
2023-11-15T08:36:24.686Z,10.70
2023-11-15T08:38:53.348Z,10.70
2023-11-15T08:41:21.577Z,10.70
2023-11-15T08:43:50.999Z,10.70
2023-11-15T08:46:20.132Z,10.70
2023-11-15T08:48:53.039Z,10.70
2023-11-15T08:51:24.573Z,10.70
2023-11-15T08:53:52.792Z,10.70
2023-11-15T08:56:21.196Z,10.70
2023-11-15T08:58:50.531Z,10.80
2023-11-15T09:01:18.640Z,10.80
2023-11-15T09:03:46.756Z,10.80
2023-11-15T09:06:15.682Z,10.80
2023-11-15T09:08:45.317Z,10.80
2023-11-15T09:11:15.322Z,10.80
2023-11-15T09:13:43.392Z,10.80
2023-11-15T09:16:13.865Z,10.70
2023-11-15T09:18:45.418Z,10.70
2023-11-15T09:21:13.700Z,10.70
2023-11-15T09:23:42.654Z,10.70
2023-11-15T09:26:16.367Z,10.80
2023-11-15T09:28:44.421Z,10.80
2023-11-15T09:31:14.328Z,10.80
2023-11-15T09:33:42.457Z,10.90
2023-11-15T09:36:11.937Z,11.00
2023-11-15T09:38:41.159Z,11.00
2023-11-15T09:41:14.385Z,11.10
2023-11-15T09:43:43.297Z,11.10
2023-11-15T09:46:13.760Z,11.00
2023-11-15T09:48:53.455Z,11.10
2023-11-15T09:51:27.040Z,11.10
2023-11-15T09:54:08.347Z,11.10
2023-11-15T09:56:47.559Z,11.00
2023-11-15T09:59:16.255Z,11.00
2023-11-15T10:01:46.961Z,11.00
2023-11-15T10:04:25.033Z,11.00
2023-11-15T10:06:57.399Z,11.00
2023-11-15T10:09:40.956Z,11.10
2023-11-15T10:12:10.251Z,11.20
2023-11-15T10:14:53.182Z,11.30
2023-11-15T10:17:39.335Z,11.40
2023-11-15T10:20:19.454Z,11.40
2023-11-15T10:22:48.345Z,11.50
2023-11-15T10:25:17.060Z,11.50
2023-11-15T10:27:46.145Z,11.60
2023-11-15T10:30:17.458Z,11.60
2023-11-15T10:32:49.569Z,11.70
2023-11-15T10:35:29.536Z,11.70
2023-11-15T10:37:58.468Z,11.70
2023-11-15T10:40:29.803Z,11.80
2023-11-15T10:42:59.773Z,11.70
2023-11-15T10:45:29.613Z,11.70
2023-11-15T10:48:00.379Z,11.70
2023-11-15T10:50:31.893Z,11.70
2023-11-15T10:53:01.442Z,11.60
2023-11-15T10:55:31.090Z,11.60
2023-11-15T10:58:04.166Z,11.60
2023-11-15T11:00:36.028Z,11.50
2023-11-15T11:03:08.730Z,11.50
2023-11-15T11:05:48.292Z,11.50
2023-11-15T11:08:27.954Z,11.50
2023-11-15T11:11:06.816Z,11.50
2023-11-15T11:13:35.483Z,11.50
2023-11-15T11:16:36.211Z,11.50
2023-11-15T11:19:18.060Z,11.40
2023-11-15T11:22:06.738Z,11.40
2023-11-15T11:24:36.110Z,11.40
2023-11-15T11:27:32.803Z,11.40
2023-11-15T11:30:24.056Z,11.40
2023-11-15T11:33:12.656Z,11.40
2023-11-15T11:35:45.191Z,11.40
2023-11-15T11:38:43.736Z,11.40
2023-11-15T11:41:14.978Z,11.50
2023-11-15T11:43:43.497Z,11.40
2023-11-15T11:46:20.036Z,11.40
2023-11-15T11:48:48.323Z,11.50
2023-11-15T11:51:18.232Z,11.50
2023-11-15T11:53:48.331Z,11.50
2023-11-15T11:56:17.197Z,11.60
2023-11-15T11:58:45.533Z,11.60
2023-11-15T12:01:14.890Z,11.60
2023-11-15T12:03:48.971Z,11.60
2023-11-15T12:06:19.551Z,11.60
2023-11-15T12:08:53.189Z,11.60
2023-11-15T12:11:24.146Z,11.60
2023-11-15T12:13:54.077Z,11.60
2023-11-15T12:16:23.830Z,11.60
2023-11-15T12:19:09.049Z,11.60
2023-11-15T12:21:43.459Z,11.60
2023-11-15T12:24:14.427Z,11.60
2023-11-15T12:26:45.161Z,11.60
2023-11-15T12:29:24.426Z,11.60
2023-11-15T12:31:54.202Z,11.60
2023-11-15T12:34:23.763Z,11.60
2023-11-15T12:36:53.808Z,11.60
2023-11-15T12:39:23.986Z,11.60
2023-11-15T12:41:54.656Z,11.60
2023-11-15T12:44:23.065Z,11.60
2023-11-15T12:46:55.135Z,11.70
2023-11-15T12:49:26.564Z,11.70
2023-11-15T12:51:55.956Z,11.70
2023-11-15T12:54:24.111Z,11.70
2023-11-15T12:57:06.067Z,11.80
2023-11-15T12:59:35.126Z,11.70
2023-11-15T13:02:03.358Z,11.80
2023-11-15T13:04:47.107Z,11.70
2023-11-15T13:07:17.017Z,11.80
2023-11-15T13:09:46.167Z,11.80
2023-11-15T13:12:27.303Z,11.80
2023-11-15T13:14:57.013Z,11.70
2023-11-15T13:17:28.422Z,11.70
2023-11-15T13:20:00.704Z,11.70
2023-11-15T13:22:32.767Z,11.70
2023-11-15T13:25:01.569Z,11.70
2023-11-15T13:27:29.662Z,11.70
2023-11-15T13:29:58.029Z,11.70
2023-11-15T13:32:26.351Z,11.70
2023-11-15T13:34:54.540Z,11.70
2023-11-15T13:37:25.610Z,11.70
2023-11-15T13:39:55.671Z,11.70
2023-11-15T13:42:24.127Z,11.70
2023-11-15T13:44:53.716Z,11.60
2023-11-15T13:47:22.479Z,11.60
2023-11-15T13:49:50.598Z,11.70
2023-11-15T13:52:18.968Z,11.70
2023-11-15T13:54:48.126Z,11.60
2023-11-15T13:57:19.056Z,11.60
2023-11-15T13:59:47.560Z,11.70
2023-11-15T14:02:15.818Z,11.70
2023-11-15T14:04:44.161Z,11.70
2023-11-15T14:07:12.501Z,11.70
2023-11-15T14:09:41.077Z,11.70
2023-11-15T14:12:10.054Z,11.70
2023-11-15T14:14:39.999Z,11.70
2023-11-15T14:17:08.984Z,11.70
2023-11-15T14:19:38.243Z,11.70
2023-11-15T14:22:07.101Z,11.60
2023-11-15T14:24:36.143Z,11.60
2023-11-15T14:27:05.276Z,11.60
2023-11-15T14:29:33.597Z,11.60
2023-11-15T14:32:03.207Z,11.60
2023-11-15T14:34:31.277Z,11.70
2023-11-15T14:36:59.344Z,11.70
2023-11-15T14:39:31.240Z,11.70
2023-11-15T14:42:00.326Z,11.70
2023-11-15T14:44:29.918Z,11.70
2023-11-15T14:46:58.705Z,11.60
2023-11-15T14:49:28.218Z,11.60
2023-11-15T14:52:08.577Z,11.60
2023-11-15T14:54:41.705Z,11.60
2023-11-15T14:57:10.452Z,11.60
2023-11-15T14:59:41.558Z,11.60
2023-11-15T15:02:10.535Z,11.50
2023-11-15T15:04:44.034Z,11.50
2023-11-15T15:07:13.485Z,11.40
2023-11-15T15:09:41.542Z,11.40
2023-11-15T15:12:10.364Z,11.40
2023-11-15T15:14:39.284Z,11.40
2023-11-15T15:17:14.633Z,11.40
2023-11-15T15:19:50.260Z,11.40
2023-11-15T15:22:18.351Z,11.30
2023-11-15T15:24:46.386Z,11.30
2023-11-15T15:27:14.448Z,11.30
2023-11-15T15:29:43.651Z,11.30
2023-11-15T15:32:14.111Z,11.30
2023-11-15T15:34:43.131Z,11.30
2023-11-15T15:37:13.682Z,11.30
2023-11-15T15:39:41.745Z,11.40
2023-11-15T15:42:12.200Z,11.40
2023-11-15T15:44:41.354Z,11.40
2023-11-15T15:47:10.757Z,11.30
2023-11-15T15:49:42.644Z,11.30
2023-11-15T15:52:12.795Z,11.30
2023-11-15T15:54:41.356Z,11.40
2023-11-15T15:57:10.592Z,11.40
2023-11-15T15:59:39.693Z,11.40
2023-11-15T16:02:09.240Z,11.40
2023-11-15T16:04:37.601Z,11.40
2023-11-15T16:07:06.853Z,11.40
2023-11-15T16:09:36.227Z,11.40
2023-11-15T16:12:04.542Z,11.50
2023-11-15T16:14:32.614Z,11.40
2023-11-15T16:17:00.698Z,11.40
2023-11-15T16:19:28.776Z,11.50
2023-11-15T16:21:57.552Z,11.40
2023-11-15T16:24:25.708Z,11.50
2023-11-15T16:26:55.097Z,11.50
2023-11-15T16:29:24.373Z,11.40
2023-11-15T16:31:52.466Z,11.40
2023-11-15T16:34:20.722Z,11.40
2023-11-15T16:36:48.772Z,11.30
2023-11-15T16:39:21.949Z,11.30
2023-11-15T16:41:51.791Z,11.20
2023-11-15T16:44:21.856Z,11.10
2023-11-15T16:46:50.168Z,11.10
2023-11-15T16:49:18.524Z,11.00
2023-11-15T16:51:46.867Z,10.90
2023-11-15T16:54:16.121Z,10.90
2023-11-15T16:56:45.487Z,10.80
2023-11-15T16:59:14.563Z,10.80
2023-11-15T17:01:44.055Z,10.70
2023-11-15T17:04:12.193Z,10.70
2023-11-15T17:06:40.668Z,10.70
2023-11-15T17:09:09.343Z,10.60
2023-11-15T17:11:37.354Z,10.60
2023-11-15T17:14:06.485Z,10.50
2023-11-15T17:16:34.769Z,10.50
2023-11-15T17:19:04.999Z,10.40
2023-11-15T17:21:33.128Z,10.40
2023-11-15T17:24:02.374Z,10.40
2023-11-15T17:26:32.270Z,10.40
2023-11-15T17:29:00.693Z,10.40
2023-11-15T17:31:29.545Z,10.40
2023-11-15T17:33:58.004Z,10.30
2023-11-15T17:36:29.826Z,10.30
2023-11-15T17:38:58.218Z,10.30
2023-11-15T17:41:27.263Z,10.30
2023-11-15T17:43:55.619Z,10.20
2023-11-15T17:46:24.910Z,10.20
2023-11-15T17:48:54.816Z,10.20
2023-11-15T17:51:22.942Z,10.20
2023-11-15T17:53:54.268Z,10.10
2023-11-15T17:56:22.331Z,10.10
2023-11-15T17:58:52.229Z,10.10
2023-11-15T18:01:21.657Z,10.10
2023-11-15T18:03:49.929Z,10.10
2023-11-15T18:06:23.683Z,10.00
2023-11-15T18:08:53.203Z,10.00
2023-11-15T18:11:21.295Z,10.00
2023-11-15T18:13:49.332Z,10.00
2023-11-15T18:16:17.475Z,10.00
2023-11-15T18:18:45.657Z,9.90
2023-11-15T18:21:13.948Z,9.90
2023-11-15T18:23:42.034Z,9.90
2023-11-15T18:26:11.456Z,9.80
2023-11-15T18:28:41.783Z,9.80
2023-11-15T18:31:09.990Z,9.80
2023-11-15T18:33:40.000Z,9.80
2023-11-15T18:36:11.267Z,9.80
2023-11-15T18:38:40.597Z,9.80
2023-11-15T18:41:08.962Z,9.80
2023-11-15T18:43:38.595Z,9.80
2023-11-15T18:46:07.439Z,9.80
2023-11-15T18:48:35.654Z,9.80
2023-11-15T18:51:03.775Z,9.80
2023-11-15T18:53:31.860Z,9.80
2023-11-15T18:56:01.216Z,9.80
2023-11-15T18:58:29.488Z,9.80
2023-11-15T19:00:59.459Z,9.70
2023-11-15T19:03:27.977Z,9.70
2023-11-15T19:05:57.126Z,9.70
2023-11-15T19:08:25.315Z,9.70
2023-11-15T19:10:55.683Z,9.70
2023-11-15T19:13:26.239Z,9.80
2023-11-15T19:15:54.610Z,9.80
2023-11-15T19:18:25.776Z,9.80
2023-11-15T19:20:53.923Z,9.80
2023-11-15T19:23:23.430Z,9.80
2023-11-15T19:25:51.963Z,9.90
2023-11-15T19:28:20.063Z,9.90
2023-11-15T19:30:50.400Z,9.90
2023-11-15T19:33:20.808Z,9.90
2023-11-15T19:35:52.883Z,9.90
2023-11-15T19:38:21.018Z,10.00
2023-11-15T19:40:49.235Z,10.00
2023-11-15T19:43:17.336Z,10.00
2023-11-15T19:45:45.535Z,10.00
2023-11-15T19:48:13.794Z,10.00
2023-11-15T19:50:42.274Z,10.10
2023-11-15T19:53:12.342Z,10.10
2023-11-15T19:55:40.599Z,10.10
2023-11-15T19:58:08.632Z,10.20
2023-11-15T20:00:37.680Z,10.20
2023-11-15T20:03:10.928Z,10.20
2023-11-15T20:05:41.414Z,10.20
2023-11-15T20:08:10.845Z,10.30
2023-11-15T20:10:38.959Z,10.30
2023-11-15T20:13:08.466Z,10.30
2023-11-15T20:15:38.173Z,10.30
2023-11-15T20:18:07.030Z,10.40
2023-11-15T20:20:35.389Z,10.40
2023-11-15T20:23:03.487Z,10.40
2023-11-15T20:25:32.982Z,10.40
2023-11-15T20:28:01.567Z,10.40
2023-11-15T20:30:29.667Z,10.40
2023-11-15T20:32:57.904Z,10.30
2023-11-15T20:35:26.046Z,10.30
2023-11-15T20:37:54.143Z,10.30
2023-11-15T20:40:23.308Z,10.30
2023-11-15T20:42:54.040Z,10.40
2023-11-15T20:45:23.172Z,10.40
2023-11-15T20:47:51.426Z,10.30
2023-11-15T20:50:19.691Z,10.30
2023-11-15T20:52:49.640Z,10.30
2023-11-15T20:55:20.650Z,10.30
2023-11-15T20:57:50.321Z,10.30
2023-11-15T21:00:26.952Z,10.30
2023-11-15T21:02:57.049Z,10.30
2023-11-15T21:05:26.305Z,10.30
2023-11-15T21:07:54.320Z,10.30
2023-11-15T21:10:22.493Z,10.30
2023-11-15T21:12:50.494Z,10.30
2023-11-15T21:15:19.979Z,10.30
2023-11-15T21:17:48.251Z,10.30
2023-11-15T21:20:18.334Z,10.30
2023-11-15T21:22:46.573Z,10.30
2023-11-15T21:25:14.939Z,10.30
2023-11-15T21:27:43.965Z,10.30
2023-11-15T21:30:14.029Z,10.30
2023-11-15T21:32:44.311Z,10.30
2023-11-15T21:35:13.247Z,10.30
2023-11-15T21:37:43.880Z,10.40
2023-11-15T21:40:16.170Z,10.30
2023-11-15T21:42:46.251Z,10.30
2023-11-15T21:45:15.725Z,10.30
2023-11-15T21:47:46.703Z,10.30
2023-11-15T21:50:16.664Z,10.30
2023-11-15T21:52:45.578Z,10.30
2023-11-15T21:55:13.905Z,10.40
2023-11-15T21:57:42.157Z,10.30
2023-11-15T22:00:14.637Z,10.40
2023-11-15T22:02:44.509Z,10.30
2023-11-15T22:05:12.946Z,10.30
2023-11-15T22:07:41.633Z,10.30
2023-11-15T22:10:11.266Z,10.30
2023-11-15T22:12:39.496Z,10.20
2023-11-15T22:15:10.530Z,10.20
2023-11-15T22:17:40.473Z,10.20
2023-11-15T22:20:12.294Z,10.20
2023-11-15T22:22:40.466Z,10.10
2023-11-15T22:25:08.901Z,10.10
2023-11-15T22:27:37.106Z,10.10
2023-11-15T22:30:08.053Z,10.10
2023-11-15T22:32:36.415Z,10.10
2023-11-15T22:35:04.819Z,10.10
2023-11-15T22:37:35.070Z,10.10
2023-11-15T22:40:03.257Z,10.10
2023-11-15T22:42:31.347Z,10.10
2023-11-15T22:44:59.631Z,10.10
2023-11-15T22:47:27.757Z,10.10
2023-11-15T22:49:55.841Z,10.10
2023-11-15T22:52:23.905Z,10.10
2023-11-15T22:54:53.480Z,10.10
2023-11-15T22:57:22.116Z,10.10
2023-11-15T22:59:52.551Z,10.10
2023-11-15T23:02:21.694Z,10.10
2023-11-15T23:04:50.118Z,10.10
2023-11-15T23:07:21.716Z,10.10
2023-11-15T23:09:50.495Z,10.10
2023-11-15T23:12:19.944Z,10.10
2023-11-15T23:14:49.416Z,10.10
2023-11-15T23:17:17.936Z,10.20
2023-11-15T23:19:46.232Z,10.20
2023-11-15T23:22:15.573Z,10.30
2023-11-15T23:24:44.043Z,10.30
2023-11-15T23:27:12.379Z,10.30
2023-11-15T23:29:42.485Z,10.30
2023-11-15T23:32:10.617Z,10.30
2023-11-15T23:34:38.666Z,10.30
2023-11-15T23:37:06.768Z,10.30
2023-11-15T23:39:34.968Z,10.20
2023-11-15T23:42:03.201Z,10.20
2023-11-15T23:44:33.105Z,10.20
2023-11-15T23:47:02.600Z,10.20
2023-11-15T23:49:31.820Z,10.10
2023-11-15T23:51:59.901Z,10.00
2023-11-15T23:54:28.030Z,10.00
2023-11-15T23:56:59.513Z,10.00
2023-11-15T23:59:29.199Z,10.00
